createdAt,value
2022-10-18T00:02:20.195Z,3.13
2022-10-18T00:04:47.680Z,2.90
2022-10-18T00:07:14.699Z,3.10
2022-10-18T00:09:41.464Z,3.23
2022-10-18T00:12:08.205Z,3.13
2022-10-18T00:14:35.008Z,2.90
2022-10-18T00:17:01.801Z,2.90
2022-10-18T00:19:29.376Z,3.00
2022-10-18T00:21:56.223Z,2.43
2022-10-18T00:24:22.911Z,2.40
2022-10-18T00:26:49.577Z,2.80
2022-10-18T00:29:17.820Z,3.07
2022-10-18T00:31:44.625Z,2.50
2022-10-18T00:34:14.361Z,2.60
2022-10-18T00:36:41.831Z,2.77
2022-10-18T00:39:11.620Z,2.83
2022-10-18T00:41:38.421Z,3.17
2022-10-18T00:44:06.453Z,2.60
2022-10-18T00:46:39.152Z,3.30
2022-10-18T00:49:10.467Z,3.00
2022-10-18T00:51:44.227Z,2.50
2022-10-18T00:54:13.153Z,3.20
2022-10-18T00:56:39.950Z,2.80
2022-10-18T00:59:07.778Z,2.63
2022-10-18T01:01:34.494Z,2.80
2022-10-18T01:04:01.269Z,2.50
2022-10-18T01:06:28.839Z,3.07
2022-10-18T01:09:19.926Z,3.50
2022-10-18T01:12:14.512Z,2.90
2022-10-18T01:15:02.521Z,3.00
2022-10-18T01:17:52.637Z,3.17
2022-10-18T01:20:38.382Z,2.70
2022-10-18T01:23:12.761Z,2.70
2022-10-18T01:26:02.542Z,2.87
2022-10-18T01:28:50.259Z,3.00
2022-10-18T01:31:22.721Z,3.50
2022-10-18T01:33:56.539Z,2.97
2022-10-18T01:36:34.004Z,3.50
2022-10-18T01:39:05.779Z,3.20
2022-10-18T01:41:35.353Z,2.90
2022-10-18T01:44:04.622Z,2.60
2022-10-18T01:46:32.512Z,3.17
2022-10-18T01:49:00.155Z,2.87
2022-10-18T01:51:29.044Z,3.23
2022-10-18T01:53:56.207Z,3.13
2022-10-18T01:56:40.061Z,3.20
2022-10-18T01:59:30.821Z,3.10
2022-10-18T02:02:15.210Z,3.20
2022-10-18T02:04:59.008Z,4.57
2022-10-18T02:07:34.348Z,3.30
2022-10-18T02:12:49.305Z,3.53
2022-10-18T02:15:19.685Z,3.90
2022-10-18T02:17:47.202Z,3.37
2022-10-18T02:20:17.945Z,3.20
2022-10-18T02:22:46.000Z,3.57
2022-10-18T02:25:20.241Z,4.03
2022-10-18T02:27:47.483Z,3.37
2022-10-18T02:30:15.718Z,3.50
2022-10-18T02:32:51.141Z,3.43
2022-10-18T02:35:24.664Z,4.23
2022-10-18T02:37:53.841Z,3.97
2022-10-18T02:40:20.719Z,5.00
2022-10-18T02:42:51.363Z,5.27
2022-10-18T02:45:18.368Z,5.80
2022-10-18T02:47:45.381Z,5.70
2022-10-18T02:50:12.344Z,4.40
2022-10-18T02:52:39.143Z,4.00
2022-10-18T02:55:06.671Z,3.80
2022-10-18T02:57:34.109Z,4.10
2022-10-18T03:00:01.020Z,3.40
2022-10-18T03:02:27.770Z,3.20
2022-10-18T03:04:54.415Z,3.63
2022-10-18T03:07:21.067Z,3.30
2022-10-18T03:09:47.742Z,4.00
2022-10-18T03:12:14.560Z,3.77
2022-10-18T03:14:41.161Z,3.97
2022-10-18T03:17:08.158Z,4.40
2022-10-18T03:19:34.752Z,3.77
2022-10-18T03:22:01.404Z,3.83
2022-10-18T03:24:28.159Z,3.77
2022-10-18T03:26:54.804Z,4.10
2022-10-18T03:29:21.507Z,3.50
2022-10-18T03:31:48.264Z,4.10
2022-10-18T03:34:16.250Z,3.97
2022-10-18T03:36:43.133Z,4.10
2022-10-18T03:39:11.493Z,3.83
2022-10-18T03:41:38.136Z,4.03
2022-10-18T03:44:04.933Z,4.67
2022-10-18T03:46:31.596Z,3.97
2022-10-18T03:48:58.293Z,3.43
2022-10-18T03:51:24.973Z,3.93
2022-10-18T03:53:51.618Z,3.63
2022-10-18T03:56:18.278Z,4.27
2022-10-18T03:58:45.072Z,3.57
2022-10-18T04:01:12.092Z,5.80
2022-10-18T04:03:38.882Z,3.30
2022-10-18T04:06:05.739Z,3.43
2022-10-18T04:08:32.359Z,3.33
2022-10-18T04:10:59.039Z,4.13
2022-10-18T04:13:25.745Z,3.90
2022-10-18T04:15:52.335Z,3.83
2022-10-18T04:18:18.935Z,4.13
2022-10-18T04:20:45.712Z,3.97
2022-10-18T04:23:12.353Z,4.00
2022-10-18T04:25:39.002Z,4.07
2022-10-18T04:28:05.764Z,4.87
2022-10-18T04:30:32.375Z,3.87
2022-10-18T04:32:58.999Z,4.53
2022-10-18T04:35:26.106Z,4.50
2022-10-18T04:37:52.778Z,4.13
2022-10-18T04:40:20.097Z,3.33
2022-10-18T04:42:47.371Z,3.80
2022-10-18T04:45:14.013Z,4.30
2022-10-18T04:47:40.650Z,4.17
2022-10-18T04:50:07.631Z,4.30
2022-10-18T04:52:34.365Z,4.10
2022-10-18T04:55:00.967Z,4.07
2022-10-18T04:57:27.763Z,3.70
2022-10-18T04:59:54.350Z,4.53
2022-10-18T05:02:20.989Z,3.70
2022-10-18T05:04:47.632Z,3.70
2022-10-18T05:07:14.331Z,3.90
2022-10-18T05:09:40.967Z,3.87
2022-10-18T05:12:07.599Z,3.90
2022-10-18T05:14:34.270Z,4.17
2022-10-18T05:17:00.893Z,3.20
2022-10-18T05:19:27.603Z,3.60
2022-10-18T05:21:54.321Z,3.63
2022-10-18T05:24:21.999Z,3.43
2022-10-18T05:26:50.862Z,3.43
2022-10-18T05:29:17.641Z,3.67
2022-10-18T05:31:44.374Z,3.43
2022-10-18T05:34:11.020Z,3.73
2022-10-18T05:36:37.624Z,3.43
2022-10-18T05:39:05.298Z,3.90
2022-10-18T05:41:32.513Z,3.40
2022-10-18T05:43:59.192Z,3.20
2022-10-18T05:46:25.803Z,3.77
2022-10-18T05:48:52.567Z,3.70
2022-10-18T05:51:19.552Z,3.30
2022-10-18T05:53:46.374Z,3.33
2022-10-18T05:56:14.363Z,3.50
2022-10-18T05:58:42.688Z,3.90
2022-10-18T06:01:10.262Z,3.30
2022-10-18T06:03:36.961Z,3.87
2022-10-18T06:06:09.401Z,3.57
2022-10-18T06:08:37.409Z,4.00
2022-10-18T06:11:11.373Z,3.10
2022-10-18T06:13:42.392Z,3.30
2022-10-18T06:16:09.550Z,3.53
2022-10-18T06:18:36.460Z,3.30
2022-10-18T06:21:03.121Z,3.37
2022-10-18T06:23:30.197Z,3.97
2022-10-18T06:26:05.793Z,3.37
2022-10-18T06:28:35.023Z,4.10
2022-10-18T06:31:02.002Z,3.43
2022-10-18T06:33:30.905Z,3.60
2022-10-18T06:36:03.456Z,3.23
2022-10-18T06:38:30.780Z,3.47
2022-10-18T06:40:58.848Z,4.60
2022-10-18T06:43:25.926Z,3.60
2022-10-18T06:45:53.449Z,3.83
2022-10-18T06:48:21.402Z,3.73
2022-10-18T06:50:58.934Z,3.80
2022-10-18T06:53:29.327Z,3.90
2022-10-18T06:56:03.054Z,4.33
2022-10-18T06:58:30.692Z,4.00
2022-10-18T07:00:57.768Z,4.50
2022-10-18T07:03:24.668Z,5.00
2022-10-18T07:05:51.350Z,4.47
2022-10-18T07:08:18.473Z,4.50
2022-10-18T07:10:53.064Z,4.83
2022-10-18T07:13:31.894Z,3.93
2022-10-18T07:16:07.033Z,4.87
2022-10-18T07:18:35.631Z,5.10
2022-10-18T07:21:07.737Z,6.00
2022-10-18T07:23:42.669Z,4.23
2022-10-18T07:26:19.722Z,5.47
2022-10-18T07:28:49.958Z,5.10
2022-10-18T07:31:17.419Z,4.30
2022-10-18T07:33:44.087Z,5.70
2022-10-18T07:36:12.221Z,4.80
2022-10-18T07:38:39.327Z,5.33
2022-10-18T07:41:07.756Z,5.27
2022-10-18T07:43:35.297Z,5.00
2022-10-18T07:46:04.200Z,4.90
2022-10-18T07:48:31.023Z,4.60
2022-10-18T07:51:02.062Z,4.30
2022-10-18T07:53:29.613Z,4.73
2022-10-18T07:56:07.291Z,4.10
2022-10-18T07:58:36.100Z,5.90
2022-10-18T08:01:07.513Z,5.87
2022-10-18T08:03:34.967Z,5.43
2022-10-18T08:06:01.853Z,5.83
2022-10-18T08:08:29.424Z,5.73
2022-10-18T08:11:01.371Z,5.43
2022-10-18T08:13:28.042Z,5.80
2022-10-18T08:16:00.884Z,4.43
2022-10-18T08:18:28.049Z,4.70
2022-10-18T08:20:54.671Z,5.13
2022-10-18T08:23:21.513Z,5.10
2022-10-18T08:25:48.374Z,5.60
2022-10-18T08:28:15.033Z,5.43
2022-10-18T08:30:41.676Z,4.97
2022-10-18T08:33:08.308Z,5.70
2022-10-18T08:35:35.119Z,5.27
2022-10-18T08:38:01.807Z,4.80
2022-10-18T08:40:28.857Z,5.60
2022-10-18T08:43:42.109Z,5.60
2022-10-18T08:46:12.487Z,7.53
2022-10-18T08:48:51.559Z,6.17
2022-10-18T08:51:28.330Z,6.00
2022-10-18T08:54:04.096Z,6.30
2022-10-18T08:56:32.170Z,6.90
2022-10-18T08:58:58.835Z,7.33
2022-10-18T09:01:41.268Z,7.20
2022-10-18T09:04:17.834Z,6.20
2022-10-18T09:07:09.641Z,6.60
2022-10-18T09:09:39.088Z,6.47
2022-10-18T09:12:43.841Z,6.00
2022-10-18T09:15:34.438Z,6.30
2022-10-18T09:18:13.019Z,6.70
2022-10-18T09:21:04.182Z,6.50
2022-10-18T09:23:44.061Z,7.33
2022-10-18T09:26:14.626Z,5.33
2022-10-18T09:28:58.930Z,6.80
2022-10-18T09:31:53.828Z,7.03
2022-10-18T09:34:38.780Z,7.23
2022-10-18T09:37:16.051Z,4.70
2022-10-18T09:39:43.704Z,6.30
2022-10-18T09:42:28.537Z,6.50
2022-10-18T09:45:00.821Z,8.17
2022-10-18T09:47:58.297Z,6.27
2022-10-18T09:50:32.212Z,6.20
2022-10-18T09:53:19.226Z,11.67
2022-10-18T09:56:06.489Z,13.23
2022-10-18T09:58:46.857Z,7.13
2022-10-18T10:01:19.493Z,7.30
2022-10-18T10:03:46.381Z,6.90
2022-10-18T10:06:13.110Z,7.07
2022-10-18T10:08:43.735Z,10.30
2022-10-18T10:11:30.436Z,10.07
2022-10-18T10:14:06.297Z,9.93
2022-10-18T10:16:32.997Z,8.87
2022-10-18T10:18:59.962Z,9.43
2022-10-18T10:21:26.733Z,8.00
2022-10-18T10:23:56.985Z,9.97
2022-10-18T10:26:34.321Z,8.80
2022-10-18T10:29:01.337Z,8.40
2022-10-18T10:31:31.929Z,8.73
2022-10-18T10:34:00.247Z,7.30
2022-10-18T10:36:26.879Z,8.30
2022-10-18T10:39:06.378Z,7.93
2022-10-18T10:41:33.595Z,7.90
2022-10-18T10:44:03.912Z,7.37
2022-10-18T10:46:36.448Z,6.60
2022-10-18T10:49:35.034Z,6.90
2022-10-18T10:52:08.762Z,8.17
2022-10-18T10:54:50.384Z,6.10
2022-10-18T10:57:24.836Z,7.67
2022-10-18T10:59:54.151Z,7.47
2022-10-18T11:02:26.858Z,6.80
2022-10-18T11:04:55.510Z,7.97
2022-10-18T11:07:41.644Z,7.30
2022-10-18T11:10:11.478Z,8.03
2022-10-18T11:12:47.024Z,6.40
2022-10-18T11:15:19.670Z,6.33
2022-10-18T11:18:08.797Z,7.70
2022-10-18T11:20:40.825Z,6.87
2022-10-18T11:23:11.302Z,7.70
2022-10-18T11:26:11.975Z,7.80
2022-10-18T11:29:03.800Z,7.10
2022-10-18T11:31:33.478Z,8.43
2022-10-18T11:34:30.928Z,8.50
2022-10-18T11:37:37.579Z,7.30
2022-10-18T11:40:24.016Z,5.83
2022-10-18T11:43:12.309Z,8.30
2022-10-18T11:46:02.643Z,7.30
2022-10-18T11:49:02.191Z,6.20
2022-10-18T11:52:07.349Z,6.23
2022-10-18T11:54:46.944Z,9.70
2022-10-18T11:57:54.455Z,8.80
2022-10-18T12:00:21.107Z,6.60
2022-10-18T12:02:50.648Z,8.40
2022-10-18T12:05:23.510Z,7.70
2022-10-18T12:08:05.171Z,8.20
2022-10-18T12:10:46.003Z,9.47
2022-10-18T12:13:43.869Z,8.10
2022-10-18T12:16:12.258Z,9.60
2022-10-18T12:18:59.657Z,7.60
2022-10-18T12:21:32.714Z,7.87
2022-10-18T12:24:22.803Z,7.77
2022-10-18T12:26:53.551Z,8.47
2022-10-18T12:29:29.846Z,8.60
2022-10-18T12:32:01.724Z,7.53
2022-10-18T12:34:51.151Z,7.40
2022-10-18T12:37:20.773Z,6.33
2022-10-18T12:40:14.380Z,6.53
2022-10-18T12:42:48.135Z,5.90
2022-10-18T12:45:14.741Z,5.37
2022-10-18T12:47:41.398Z,5.70
2022-10-18T12:50:29.560Z,5.70
2022-10-18T12:53:03.721Z,6.33
2022-10-18T12:55:40.222Z,5.03
2022-10-18T12:58:31.629Z,5.13
2022-10-18T13:01:04.905Z,4.77
2022-10-18T13:03:49.735Z,5.10
2022-10-18T13:06:16.484Z,3.87
2022-10-18T13:08:43.608Z,4.10
2022-10-18T13:11:10.355Z,3.67
2022-10-18T13:13:45.255Z,3.37
2022-10-18T13:16:41.708Z,3.67
2022-10-18T13:19:17.375Z,3.43
2022-10-18T13:21:58.549Z,4.40
2022-10-18T13:24:37.317Z,3.17
2022-10-18T13:30:17.618Z,2.50
2022-10-18T13:33:22.159Z,2.60
2022-10-18T13:36:22.707Z,2.10
2022-10-18T13:38:57.680Z,1.40
2022-10-18T13:41:29.155Z,1.43
2022-10-18T13:44:16.701Z,1.53
2022-10-18T13:46:43.280Z,1.70
2022-10-18T13:49:40.298Z,1.43
2022-10-18T13:52:47.996Z,1.47
2022-10-18T13:55:39.247Z,1.10
2022-10-18T13:58:41.099Z,1.30
2022-10-18T14:01:32.863Z,1.30
2022-10-18T14:04:21.359Z,1.10
2022-10-18T14:06:48.920Z,1.20
2022-10-18T14:09:40.407Z,1.00
2022-10-18T14:12:21.851Z,1.17
2022-10-18T14:14:56.097Z,1.20
2022-10-18T14:17:35.054Z,0.90
2022-10-18T14:20:36.916Z,1.23
2022-10-18T14:23:24.548Z,1.20
2022-10-18T14:25:51.200Z,1.30
2022-10-18T14:28:27.413Z,1.30
2022-10-18T14:31:12.389Z,1.43
2022-10-18T14:33:41.309Z,1.30
2022-10-18T14:36:16.015Z,1.00
2022-10-18T14:38:53.527Z,1.07
2022-10-18T14:41:20.146Z,1.00
2022-10-18T14:43:48.146Z,0.90
2022-10-18T14:46:29.022Z,0.93
2022-10-18T14:49:04.428Z,1.00
2022-10-18T14:51:35.341Z,0.80
2022-10-18T14:54:02.452Z,1.20
2022-10-18T14:56:31.137Z,1.10
2022-10-18T14:59:01.863Z,1.07
2022-10-18T15:01:31.937Z,1.20
2022-10-18T15:04:11.197Z,1.20
2022-10-18T15:06:43.538Z,1.03
2022-10-18T15:09:12.569Z,1.10
2022-10-18T15:11:41.361Z,1.10
2022-10-18T15:14:14.574Z,0.90
2022-10-18T15:16:41.375Z,1.00
2022-10-18T15:19:14.167Z,0.90
2022-10-18T15:25:15.358Z,1.00
2022-10-18T15:27:55.479Z,0.90
2022-10-18T15:30:36.516Z,0.90
2022-10-18T15:33:09.614Z,1.10
2022-10-18T15:35:38.356Z,1.07
2022-10-18T15:38:32.704Z,1.00
2022-10-18T15:40:59.548Z,1.00
2022-10-18T15:43:26.141Z,1.97
2022-10-18T15:46:05.024Z,1.00
2022-10-18T15:48:39.523Z,1.80
2022-10-18T15:51:37.361Z,1.40
2022-10-18T15:54:04.047Z,1.20
2022-10-18T15:56:32.021Z,1.10
2022-10-18T15:59:06.870Z,1.23
2022-10-18T16:01:38.352Z,1.40
2022-10-18T16:04:10.070Z,1.17
2022-10-18T16:06:38.578Z,1.20
2022-10-18T16:09:05.896Z,1.37
2022-10-18T16:11:32.600Z,1.30
2022-10-18T16:14:00.531Z,1.13
2022-10-18T16:16:29.092Z,1.30
2022-10-18T16:18:56.317Z,1.10
2022-10-18T16:21:27.248Z,1.40
2022-10-18T16:23:54.424Z,1.60
2022-10-18T16:26:22.314Z,1.50
2022-10-18T16:28:49.725Z,1.30
2022-10-18T16:31:20.597Z,1.53
2022-10-18T16:33:50.156Z,1.67
2022-10-18T16:36:19.016Z,1.60
2022-10-18T16:38:46.532Z,1.27
2022-10-18T16:41:14.971Z,1.90
2022-10-18T16:43:46.367Z,1.97
2022-10-18T16:46:21.709Z,1.57
2022-10-18T16:48:49.637Z,1.30
2022-10-18T16:51:17.200Z,1.60
2022-10-18T16:53:44.125Z,1.40
2022-10-18T16:56:15.477Z,1.47
2022-10-18T16:58:42.631Z,1.33
2022-10-18T17:01:13.750Z,1.20
2022-10-18T17:03:40.707Z,1.10
2022-10-18T17:06:18.991Z,1.40
2022-10-18T17:08:45.810Z,1.27
2022-10-18T17:11:14.559Z,1.10
2022-10-18T17:13:41.983Z,1.10
2022-10-18T17:19:07.153Z,1.30
2022-10-18T17:21:34.028Z,1.57
2022-10-18T17:24:05.827Z,1.20
2022-10-18T17:26:33.416Z,1.53
2022-10-18T17:29:04.896Z,1.60
2022-10-18T17:31:32.536Z,1.50
2022-10-18T17:34:01.491Z,2.47
2022-10-18T17:36:29.352Z,2.57
2022-10-18T17:38:56.057Z,1.90
2022-10-18T17:41:23.371Z,1.73
2022-10-18T17:43:50.245Z,23.67
2022-10-18T17:46:17.845Z,4.20
2022-10-18T17:48:44.637Z,3.07
2022-10-18T17:51:14.249Z,3.47
2022-10-18T17:53:41.210Z,3.10
2022-10-18T17:56:08.319Z,3.07
2022-10-18T17:58:35.399Z,2.73
2022-10-18T18:01:13.338Z,2.17
2022-10-18T18:03:41.135Z,2.77
2022-10-18T18:06:31.229Z,2.13
2022-10-18T18:09:00.060Z,2.47
2022-10-18T18:11:28.209Z,2.33
2022-10-18T18:13:56.179Z,2.50
2022-10-18T18:16:26.106Z,3.37
2022-10-18T18:18:55.334Z,2.70
2022-10-18T18:21:23.173Z,3.30
2022-10-18T18:23:50.913Z,3.23
2022-10-18T18:26:18.451Z,2.80
2022-10-18T18:28:45.957Z,1.77
2022-10-18T18:31:23.815Z,1.93
2022-10-18T18:33:56.085Z,1.77
2022-10-18T18:36:24.615Z,2.23
2022-10-18T18:38:57.002Z,2.10
2022-10-18T18:41:25.860Z,2.10
2022-10-18T18:43:57.793Z,1.87
2022-10-18T18:46:26.309Z,2.47
2022-10-18T18:48:53.020Z,2.67
2022-10-18T18:51:21.548Z,3.10
2022-10-18T18:53:48.751Z,5.40
2022-10-18T18:58:54.142Z,5.30
2022-10-18T19:01:29.701Z,5.00
2022-10-18T19:03:58.141Z,3.97
2022-10-18T19:06:33.594Z,4.67
2022-10-18T19:09:03.720Z,9.57
2022-10-18T19:11:36.356Z,9.63
2022-10-18T19:14:03.793Z,14.60
2022-10-18T19:16:34.402Z,11.90
2022-10-18T19:19:12.647Z,11.00
2022-10-18T19:21:41.815Z,10.40
2022-10-18T19:24:09.109Z,9.50
2022-10-18T19:26:44.463Z,9.90
2022-10-18T19:29:14.940Z,8.77
2022-10-18T19:31:41.986Z,8.80
2022-10-18T19:34:10.563Z,7.37
2022-10-18T19:36:38.363Z,7.10
2022-10-18T19:39:07.269Z,6.40
2022-10-18T19:41:34.099Z,8.30
2022-10-18T19:44:00.917Z,8.73
2022-10-18T19:46:27.826Z,9.30
2022-10-18T19:48:54.451Z,9.97
2022-10-18T19:51:26.841Z,9.47
2022-10-18T19:53:55.413Z,8.10
2022-10-18T19:56:23.998Z,8.20
2022-10-18T19:58:51.133Z,8.07
2022-10-18T20:01:19.228Z,6.50
2022-10-18T20:03:46.365Z,5.60
2022-10-18T20:06:13.118Z,6.50
2022-10-18T20:08:39.998Z,6.43
2022-10-18T20:11:10.227Z,5.90
2022-10-18T20:13:37.372Z,5.83
2022-10-18T20:16:05.974Z,6.70
2022-10-18T20:18:33.232Z,7.20
2022-10-18T20:20:59.963Z,6.90
2022-10-18T20:23:26.679Z,5.60
2022-10-18T20:26:01.846Z,6.00
2022-10-18T20:28:28.778Z,5.23
2022-10-18T20:31:13.590Z,6.40
2022-10-18T20:33:40.348Z,6.57
2022-10-18T20:36:08.085Z,5.00
2022-10-18T20:38:37.234Z,5.30
2022-10-18T20:41:08.932Z,5.73
2022-10-18T20:43:36.075Z,5.37
2022-10-18T20:46:04.028Z,4.33
2022-10-18T20:48:32.212Z,3.70
2022-10-18T20:51:07.328Z,3.60
2022-10-18T20:53:37.761Z,4.30
2022-10-18T20:56:09.554Z,3.73
2022-10-18T20:58:37.567Z,4.20
2022-10-18T21:01:09.036Z,4.40
2022-10-18T21:03:41.633Z,3.20
2022-10-18T21:06:14.048Z,3.50
2022-10-18T21:08:41.529Z,3.57
2022-10-18T21:11:08.546Z,3.20
2022-10-18T21:13:35.694Z,3.13
2022-10-18T21:16:03.544Z,3.57
2022-10-18T21:18:33.124Z,3.37
2022-10-18T21:21:17.647Z,3.10
2022-10-18T21:23:44.754Z,3.13
2022-10-18T21:26:29.592Z,3.30
2022-10-18T21:28:58.662Z,3.17
2022-10-18T21:31:27.518Z,3.13
2022-10-18T21:33:56.855Z,3.90
2022-10-18T21:36:24.579Z,3.73
2022-10-18T21:38:51.739Z,3.17
2022-10-18T21:41:20.497Z,2.97
2022-10-18T21:43:50.102Z,2.83
2022-10-18T21:46:18.539Z,3.23
2022-10-18T21:48:47.578Z,2.90
2022-10-18T21:51:17.538Z,3.90
2022-10-18T21:53:46.819Z,3.37
2022-10-18T21:56:24.030Z,2.93
2022-10-18T21:58:51.120Z,2.87
2022-10-18T22:01:20.854Z,3.30
2022-10-18T22:03:50.075Z,3.40
2022-10-18T22:06:17.482Z,3.20
2022-10-18T22:08:49.937Z,4.50
2022-10-18T22:11:18.366Z,3.87
2022-10-18T22:13:45.484Z,3.97
2022-10-18T22:16:16.985Z,4.13
2022-10-18T22:18:45.125Z,4.20
2022-10-18T22:21:13.375Z,4.90
2022-10-18T22:23:52.044Z,3.97
2022-10-18T22:26:28.316Z,3.67
2022-10-18T22:28:57.165Z,4.37
2022-10-18T22:31:27.631Z,3.80
2022-10-18T22:33:56.615Z,3.40
2022-10-18T22:36:23.981Z,3.27
2022-10-18T22:38:51.019Z,2.80
2022-10-18T22:41:18.236Z,3.17
2022-10-18T22:43:45.462Z,3.73
2022-10-18T22:46:13.825Z,3.87
2022-10-18T22:48:41.657Z,3.30
2022-10-18T22:51:08.991Z,2.53
2022-10-18T22:53:37.089Z,2.43
2022-10-18T22:56:04.415Z,3.60
2022-10-18T22:58:31.854Z,2.20
2022-10-18T23:01:07.041Z,2.83
2022-10-18T23:03:34.147Z,2.67
2022-10-18T23:06:01.051Z,2.60
2022-10-18T23:08:28.312Z,3.80
2022-10-18T23:10:58.009Z,2.63
2022-10-18T23:13:26.139Z,3.00
2022-10-18T23:15:53.433Z,3.13
2022-10-18T23:18:20.107Z,3.30
2022-10-18T23:20:46.964Z,3.10
2022-10-18T23:23:14.123Z,2.70
2022-10-18T23:25:41.562Z,3.40
2022-10-18T23:28:08.210Z,3.10
2022-10-18T23:30:38.042Z,3.00
2022-10-18T23:33:04.692Z,3.50
2022-10-18T23:35:31.348Z,2.30
2022-10-18T23:37:58.001Z,3.10
2022-10-18T23:40:24.662Z,2.70
2022-10-18T23:42:51.291Z,3.33
2022-10-18T23:45:18.035Z,2.80
2022-10-18T23:47:44.688Z,3.47
2022-10-18T23:50:11.296Z,2.73
2022-10-18T23:52:37.916Z,3.10
2022-10-18T23:55:05.000Z,2.70
2022-10-18T23:57:31.858Z,3.10
2022-10-18T23:59:58.687Z,2.80
